Nearby METAR Reports

 

KSJC - San Jose, California, USA
Distance from station: NE 9mi, 14km
Updated: 01/16/2021 8:53am
Clear
Clear
 Wind from calm
Wind: Calm
Temperature: 46°F , 8°C
Dew Point: 43°F , 6°C
Humidity: 87%
Barometer: 30.20 inHg , 1022.7 hPa
Clouds: Clear
Visibility: 10 miles , 16 km
2021/01/16 13:53 KSJC 161353Z 00000KT 10SM CLR 08/06 A3020 RMK AO2 SLP225 T00830061
KNUQ - Moffett Nas/Mtn, California, USA
Distance from station: N 9mi, 14km
Updated: 01/16/2021 8:35am
Clear
Clear
 Wind from calm
Wind: Calm
Temperature: 48°F , 9°C
Dew Point: 43°F , 6°C
Humidity: 82%
Barometer: 30.20 inHg , 1022.7 hPa
Clouds: Clear
Visibility: 10 miles , 16 km
2021/01/16 13:35 KNUQ 161335Z AUTO 00000KT 10SM CLR 09/06 A3020 RMK AO2
KPAO - Palo Alto, California, USA
Distance from station: NNW 14mi, 23km
Updated: 01/15/2021 11:47pm
NOT Current
Clear
Clear
 Wind from varies
Wind: varies 5 mph , 7 km/h
Temperature: 54°F , 12°C
Dew Point: 46°F , 8°C
Humidity: 77%
Barometer: 30.24 inHg , 1024 hPa
Clouds: Clear
Visibility: 10 miles , 16 km
2021/01/16 04:47 KPAO 160447Z VRB04KT 10SM SKC 12/08 A3024 RMK LAST
 
KRHV - San Jose/Reid, California, USA
Distance from station: ENE 12mi, 19km
Updated: 01/16/2021 12:55am
NOT Current
Partly cloudy
Partly cloudy
 Wind from calm
Wind: Calm
Temperature: 54°F , 12°C
Dew Point: 46°F , 8°C
Humidity: 77%
Barometer: 30.24 inHg , 1024 hPa
Clouds: Partly cloudy
Visibility: 10 miles , 16 km
Cloud details: Partly cloudy 10000 ft
2021/01/16 05:55 KRHV 160555Z 00000KT 10SM SCT100 12/08 A3024 RMK LAST
KOAK - Oakland, California, USA
Distance from station: NNW 31mi, 50km
Updated: 01/16/2021 8:53am
Few Clouds
Few Clouds
 Wind from calm
Wind: Calm
Temperature: 46°F , 8°C
Dew Point: 43°F , 6°C
Humidity: 87%
Barometer: 30.20 inHg , 1022.7 hPa
Clouds: Few Clouds
Visibility: 10 miles , 16 km
Cloud details: Few Clouds 20000 ft
2021/01/16 13:53 KOAK 161353Z 00000KT 10SM FEW200 08/06 A3020 RMK AO2 SLP226 T00830056
KSQL - San Carlos Airpo, California, USA
Distance from station: NW 21mi, 34km
Updated: 01/16/2021 8:35am
Clear
Clear
 Wind from calm
Wind: Calm
Temperature: 48°F , 9°C
Dew Point: 45°F , 7°C
Humidity: 87%
Barometer: 30.21 inHg , 1023 hPa
Clouds: Clear
Visibility: 10 miles , 16 km
2021/01/16 13:35 KSQL 161335Z AUTO 00000KT 10SM CLR 09/07 A3021 RMK AO2
 
KSFO - San Francisco, California, USA
Distance from station: NW 30mi, 49km
Updated: 01/16/2021 7:56am
Clear
Clear
 Wind from calm
Wind: Calm
Temperature: 50°F , 10°C
Dew Point: 45°F , 7°C
Humidity: 82%
Barometer: 30.19 inHg , 1022.4 hPa
Clouds: Clear
Visibility: 10 miles , 16 km
2021/01/16 12:56 KSFO 161256Z 00000KT 10SM CLR 10/07 A3019 RMK AO2 SLP224 T01000067
KE16 - San Martin, California, USA
Distance from station: ESE 27mi, 43km
Updated: 01/16/2021 8:35am
Clear
Clear
 Wind from calm
Wind: Calm
Temperature: 46°F , 8°C
Dew Point: 43°F , 6°C
Humidity: 87%
Barometer: 30.21 inHg , 1023 hPa
Clouds: Clear
Visibility: 10 miles , 16 km
2021/01/16 13:35 KE16 161335Z AUTO 00000KT 10SM CLR 08/06 A3021 RMK AO2
KWVI - Watsonville, California, USA
Distance from station: SSE 27mi, 44km
Updated: 01/16/2021 8:53am
Clear
Clear
 Wind from calm
Wind: Calm
Temperature: 46°F , 8°C
Dew Point: 43°F , 6°C
Humidity: 87%
Barometer: 30.17 inHg , 1021.7 hPa
Clouds: Clear
Visibility: 10 miles , 16 km
2021/01/16 13:53 KWVI 161353Z AUTO 00000KT 10SM CLR 08/06 A3017 RMK AO2 SLP216 T00830056
 
KHAF - Half Moon Bay, California, USA
Distance from station: WNW 31mi, 50km
Updated: 01/16/2021 8:35am
Mist, Overcast
Mist, Overcast
 Wind from NNW
Wind: NNW 3 mph , 6 km/h
Temperature: 50°F , 10°C
Dew Point: 48°F , 9°C
Humidity: 94%
Barometer: 30.19 inHg , 1022.4 hPa
Summary: Mist
Clouds: Overcast
Visibility: 2 1/2 miles , 4 km
Cloud details: Overcast 200 ft
2021/01/16 13:35 KHAF 161335Z AUTO 34003KT 2 1/2SM BR OVC002 10/09 A3019 RMK AO2
KHWD - Hayward, California, USA
Distance from station: N 28mi, 44km
Updated: 01/16/2021 7:54am
Clear
Clear
 Wind from ENE
Wind: ENE 3 mph , 6 km/h
Temperature: 50°F , 10°C
Dew Point: 41°F , 5°C
Humidity: 71%
Barometer: 30.18 inHg , 1022 hPa
Clouds: Clear
Visibility: 10 miles , 16 km
2021/01/16 12:54 KHWD 161254Z AUTO 07003KT 10SM CLR 10/05 A3018 RMK AO2 SLP231 T01000050
KLVK - Livermore, California, USA
Distance from station: NNE 31mi, 51km
Updated: 01/16/2021 7:53am
Clear
Clear
 Wind from calm
Wind: Calm
Temperature: 45°F , 7°C
Dew Point: 39°F , 4°C
Humidity: 81%
Barometer: 30.20 inHg , 1022.7 hPa
Clouds: Clear
Visibility: 10 miles , 16 km
2021/01/16 12:53 KLVK 161253Z AUTO 00000KT 10SM CLR 07/04 A3020 RMK AO2 SLP225 T00670044